sensor_id;sensor_type;location;lat;lon;timestamp;P1;durP1;ratioP1;P2;durP2;ratioP2
3941;SDS011;1985;48.592;8.850;2023-06-04T00:00:24;14.43;;;5.17;;
3941;SDS011;1985;48.592;8.850;2023-06-04T00:02:50;15.45;;;5.13;;
3941;SDS011;1985;48.592;8.850;2023-06-04T00:05:16;14.73;;;4.97;;
3941;SDS011;1985;48.592;8.850;2023-06-04T00:07:42;13.60;;;4.63;;
3941;SDS011;1985;48.592;8.850;2023-06-04T00:10:07;12.73;;;4.40;;
3941;SDS011;1985;48.592;8.850;2023-06-04T00:12:33;19.40;;;5.38;;
3941;SDS011;1985;48.592;8.850;2023-06-04T00:14:59;14.23;;;5.07;;
3941;SDS011;1985;48.592;8.850;2023-06-04T00:17:25;15.23;;;5.00;;
3941;SDS011;1985;48.592;8.850;2023-06-04T00:19:50;14.93;;;5.10;;
3941;SDS011;1985;48.592;8.850;2023-06-04T00:22:16;16.73;;;5.37;;
3941;SDS011;1985;48.592;8.850;2023-06-04T00:24:42;15.68;;;4.72;;
3941;SDS011;1985;48.592;8.850;2023-06-04T00:27:08;15.00;;;5.50;;
3941;SDS011;1985;48.592;8.850;2023-06-04T00:29:34;17.10;;;5.10;;
3941;SDS011;1985;48.592;8.850;2023-06-04T00:31:59;14.90;;;5.40;;
3941;SDS011;1985;48.592;8.850;2023-06-04T00:34:25;17.80;;;4.80;;
3941;SDS011;1985;48.592;8.850;2023-06-04T00:36:51;15.52;;;5.40;;
3941;SDS011;1985;48.592;8.850;2023-06-04T00:39:16;14.20;;;5.40;;
3941;SDS011;1985;48.592;8.850;2023-06-04T00:41:42;16.58;;;4.93;;
3941;SDS011;1985;48.592;8.850;2023-06-04T00:44:08;13.70;;;5.25;;
3941;SDS011;1985;48.592;8.850;2023-06-04T00:46:34;14.80;;;5.35;;
3941;SDS011;1985;48.592;8.850;2023-06-04T00:49:01;13.80;;;5.45;;
3941;SDS011;1985;48.592;8.850;2023-06-04T00:51:27;14.98;;;5.45;;
3941;SDS011;1985;48.592;8.850;2023-06-04T00:53:56;15.63;;;5.23;;
3941;SDS011;1985;48.592;8.850;2023-06-04T00:56:23;13.82;;;5.18;;
3941;SDS011;1985;48.592;8.850;2023-06-04T00:58:48;15.57;;;5.63;;
3941;SDS011;1985;48.592;8.850;2023-06-04T01:01:18;14.52;;;5.38;;
3941;SDS011;1985;48.592;8.850;2023-06-04T01:03:49;15.48;;;5.25;;
3941;SDS011;1985;48.592;8.850;2023-06-04T01:08:49;13.40;;;5.03;;
3941;SDS011;1985;48.592;8.850;2023-06-04T01:11:30;16.10;;;5.20;;
3941;SDS011;1985;48.592;8.850;2023-06-04T01:13:59;14.17;;;4.90;;
3941;SDS011;1985;48.592;8.850;2023-06-04T01:16:27;17.88;;;4.70;;
3941;SDS011;1985;48.592;8.850;2023-06-04T01:18:58;14.88;;;5.65;;
3941;SDS011;1985;48.592;8.850;2023-06-04T01:21:28;14.32;;;4.80;;
3941;SDS011;1985;48.592;8.850;2023-06-04T01:24:00;15.85;;;5.40;;
3941;SDS011;1985;48.592;8.850;2023-06-04T01:26:30;16.98;;;5.97;;
3941;SDS011;1985;48.592;8.850;2023-06-04T01:28:57;14.73;;;5.85;;
3941;SDS011;1985;48.592;8.850;2023-06-04T01:31:24;13.38;;;4.43;;
3941;SDS011;1985;48.592;8.850;2023-06-04T01:33:53;17.52;;;5.75;;
3941;SDS011;1985;48.592;8.850;2023-06-04T01:36:23;15.95;;;5.72;;
3941;SDS011;1985;48.592;8.850;2023-06-04T01:38:49;15.07;;;5.20;;
3941;SDS011;1985;48.592;8.850;2023-06-04T01:41:15;14.20;;;5.30;;
3941;SDS011;1985;48.592;8.850;2023-06-04T01:43:41;15.18;;;5.18;;
3941;SDS011;1985;48.592;8.850;2023-06-04T01:46:07;15.07;;;5.32;;
3941;SDS011;1985;48.592;8.850;2023-06-04T01:48:33;14.73;;;5.50;;
3941;SDS011;1985;48.592;8.850;2023-06-04T01:50:58;16.93;;;5.43;;
3941;SDS011;1985;48.592;8.850;2023-06-04T01:53:25;14.68;;;5.32;;
3941;SDS011;1985;48.592;8.850;2023-06-04T01:55:51;15.00;;;5.57;;
3941;SDS011;1985;48.592;8.850;2023-06-04T01:58:17;13.52;;;5.40;;
3941;SDS011;1985;48.592;8.850;2023-06-04T02:00:47;15.88;;;5.85;;
3941;SDS011;1985;48.592;8.850;2023-06-04T02:03:14;18.02;;;5.15;;
3941;SDS011;1985;48.592;8.850;2023-06-04T02:05:40;14.95;;;5.35;;
3941;SDS011;1985;48.592;8.850;2023-06-04T02:08:06;14.82;;;4.80;;
3941;SDS011;1985;48.592;8.850;2023-06-04T02:10:31;13.15;;;4.68;;
3941;SDS011;1985;48.592;8.850;2023-06-04T02:12:58;13.20;;;5.30;;
3941;SDS011;1985;48.592;8.850;2023-06-04T02:15:27;17.43;;;5.07;;
3941;SDS011;1985;48.592;8.850;2023-06-04T02:17:54;14.18;;;5.10;;
3941;SDS011;1985;48.592;8.850;2023-06-04T02:20:27;14.02;;;5.05;;
3941;SDS011;1985;48.592;8.850;2023-06-04T02:22:54;13.95;;;5.30;;
3941;SDS011;1985;48.592;8.850;2023-06-04T02:25:20;15.50;;;5.40;;
3941;SDS011;1985;48.592;8.850;2023-06-04T02:27:46;14.00;;;5.13;;
3941;SDS011;1985;48.592;8.850;2023-06-04T02:30:11;17.10;;;5.70;;
3941;SDS011;1985;48.592;8.850;2023-06-04T02:32:37;14.37;;;4.93;;
3941;SDS011;1985;48.592;8.850;2023-06-04T02:35:04;17.70;;;5.10;;
3941;SDS011;1985;48.592;8.850;2023-06-04T02:37:30;14.00;;;4.43;;
3941;SDS011;1985;48.592;8.850;2023-06-04T02:39:55;13.88;;;5.45;;
3941;SDS011;1985;48.592;8.850;2023-06-04T02:42:21;18.13;;;4.80;;
3941;SDS011;1985;48.592;8.850;2023-06-04T02:44:46;13.63;;;5.00;;
3941;SDS011;1985;48.592;8.850;2023-06-04T02:47:12;16.50;;;5.10;;
3941;SDS011;1985;48.592;8.850;2023-06-04T02:49:38;13.75;;;5.20;;
3941;SDS011;1985;48.592;8.850;2023-06-04T02:52:03;14.30;;;5.43;;
3941;SDS011;1985;48.592;8.850;2023-06-04T02:54:29;14.73;;;5.37;;
3941;SDS011;1985;48.592;8.850;2023-06-04T02:56:55;18.30;;;5.40;;
3941;SDS011;1985;48.592;8.850;2023-06-04T02:59:21;15.18;;;5.38;;
3941;SDS011;1985;48.592;8.850;2023-06-04T03:01:46;14.77;;;4.72;;
3941;SDS011;1985;48.592;8.850;2023-06-04T03:04:13;14.38;;;5.07;;
3941;SDS011;1985;48.592;8.850;2023-06-04T03:06:40;13.95;;;5.20;;
3941;SDS011;1985;48.592;8.850;2023-06-04T03:09:09;17.27;;;5.60;;
3941;SDS011;1985;48.592;8.850;2023-06-04T03:11:35;15.15;;;5.10;;
3941;SDS011;1985;48.592;8.850;2023-06-04T03:14:01;13.75;;;5.00;;
3941;SDS011;1985;48.592;8.850;2023-06-04T03:16:27;15.33;;;5.30;;
3941;SDS011;1985;48.592;8.850;2023-06-04T03:18:52;15.82;;;5.30;;
3941;SDS011;1985;48.592;8.850;2023-06-04T03:21:18;13.50;;;5.20;;
3941;SDS011;1985;48.592;8.850;2023-06-04T03:23:44;15.20;;;5.20;;
3941;SDS011;1985;48.592;8.850;2023-06-04T03:26:09;13.82;;;4.50;;
3941;SDS011;1985;48.592;8.850;2023-06-04T03:28:37;13.45;;;4.40;;
3941;SDS011;1985;48.592;8.850;2023-06-04T03:31:03;14.55;;;5.15;;
3941;SDS011;1985;48.592;8.850;2023-06-04T03:33:29;13.60;;;4.90;;
3941;SDS011;1985;48.592;8.850;2023-06-04T03:35:55;13.00;;;4.50;;
3941;SDS011;1985;48.592;8.850;2023-06-04T03:38:23;18.55;;;5.22;;
3941;SDS011;1985;48.592;8.850;2023-06-04T03:40:50;13.15;;;4.50;;
3941;SDS011;1985;48.592;8.850;2023-06-04T03:43:17;14.13;;;4.70;;
3941;SDS011;1985;48.592;8.850;2023-06-04T03:45:43;15.27;;;5.07;;
3941;SDS011;1985;48.592;8.850;2023-06-04T03:48:09;16.50;;;4.73;;
3941;SDS011;1985;48.592;8.850;2023-06-04T03:50:35;14.63;;;4.72;;
3941;SDS011;1985;48.592;8.850;2023-06-04T03:53:00;13.68;;;5.50;;
3941;SDS011;1985;48.592;8.850;2023-06-04T03:55:26;14.30;;;4.50;;
3941;SDS011;1985;48.592;8.850;2023-06-04T03:57:51;12.67;;;4.50;;
3941;SDS011;1985;48.592;8.850;2023-06-04T04:00:17;13.80;;;5.00;;
3941;SDS011;1985;48.592;8.850;2023-06-04T04:02:45;15.88;;;5.40;;
3941;SDS011;1985;48.592;8.850;2023-06-04T04:05:10;16.00;;;4.93;;
3941;SDS011;1985;48.592;8.850;2023-06-04T04:07:36;12.32;;;4.38;;
3941;SDS011;1985;48.592;8.850;2023-06-04T04:10:02;17.83;;;5.00;;
3941;SDS011;1985;48.592;8.850;2023-06-04T04:12:29;12.57;;;4.40;;
3941;SDS011;1985;48.592;8.850;2023-06-04T04:14:55;16.02;;;4.70;;
3941;SDS011;1985;48.592;8.850;2023-06-04T04:17:21;12.70;;;4.30;;
3941;SDS011;1985;48.592;8.850;2023-06-04T04:19:46;14.80;;;4.40;;
3941;SDS011;1985;48.592;8.850;2023-06-04T04:22:12;13.98;;;4.45;;
3941;SDS011;1985;48.592;8.850;2023-06-04T04:24:38;14.57;;;5.07;;
3941;SDS011;1985;48.592;8.850;2023-06-04T04:27:04;14.18;;;4.55;;
3941;SDS011;1985;48.592;8.850;2023-06-04T04:29:30;13.98;;;4.30;;
3941;SDS011;1985;48.592;8.850;2023-06-04T04:32:01;15.27;;;4.50;;
3941;SDS011;1985;48.592;8.850;2023-06-04T04:34:35;17.50;;;4.68;;
3941;SDS011;1985;48.592;8.850;2023-06-04T04:37:02;12.63;;;4.10;;
3941;SDS011;1985;48.592;8.850;2023-06-04T04:39:28;11.75;;;3.85;;
3941;SDS011;1985;48.592;8.850;2023-06-04T04:41:54;14.63;;;4.90;;
3941;SDS011;1985;48.592;8.850;2023-06-04T04:44:20;14.88;;;4.15;;
3941;SDS011;1985;48.592;8.850;2023-06-04T04:46:45;14.10;;;4.30;;
3941;SDS011;1985;48.592;8.850;2023-06-04T04:49:12;16.40;;;4.30;;
3941;SDS011;1985;48.592;8.850;2023-06-04T04:51:38;13.40;;;4.10;;
3941;SDS011;1985;48.592;8.850;2023-06-04T04:54:04;12.07;;;4.00;;
3941;SDS011;1985;48.592;8.850;2023-06-04T04:56:32;12.80;;;3.95;;
3941;SDS011;1985;48.592;8.850;2023-06-04T04:58:59;13.50;;;4.30;;
3941;SDS011;1985;48.592;8.850;2023-06-04T05:01:25;13.90;;;3.90;;
3941;SDS011;1985;48.592;8.850;2023-06-04T05:03:50;16.70;;;4.18;;
3941;SDS011;1985;48.592;8.850;2023-06-04T05:06:16;13.27;;;4.20;;
3941;SDS011;1985;48.592;8.850;2023-06-04T05:08:42;14.18;;;4.20;;
3941;SDS011;1985;48.592;8.850;2023-06-04T05:11:08;12.87;;;4.10;;
3941;SDS011;1985;48.592;8.850;2023-06-04T05:13:34;13.70;;;4.10;;
3941;SDS011;1985;48.592;8.850;2023-06-04T05:16:00;16.23;;;4.45;;
3941;SDS011;1985;48.592;8.850;2023-06-04T05:18:31;12.88;;;4.13;;
3941;SDS011;1985;48.592;8.850;2023-06-04T05:20:59;13.77;;;4.00;;
3941;SDS011;1985;48.592;8.850;2023-06-04T05:23:27;12.55;;;3.80;;
3941;SDS011;1985;48.592;8.850;2023-06-04T05:25:54;12.75;;;4.05;;
3941;SDS011;1985;48.592;8.850;2023-06-04T05:28:20;12.55;;;4.15;;
3941;SDS011;1985;48.592;8.850;2023-06-04T05:30:45;11.50;;;3.58;;
3941;SDS011;1985;48.592;8.850;2023-06-04T05:33:13;16.17;;;4.40;;
3941;SDS011;1985;48.592;8.850;2023-06-04T05:35:46;15.27;;;4.25;;
3941;SDS011;1985;48.592;8.850;2023-06-04T05:38:13;13.20;;;4.00;;
3941;SDS011;1985;48.592;8.850;2023-06-04T05:40:43;11.50;;;3.53;;
3941;SDS011;1985;48.592;8.850;2023-06-04T05:43:09;15.68;;;3.70;;
3941;SDS011;1985;48.592;8.850;2023-06-04T05:45:35;13.57;;;3.90;;
3941;SDS011;1985;48.592;8.850;2023-06-04T05:48:00;11.80;;;4.10;;
3941;SDS011;1985;48.592;8.850;2023-06-04T05:50:27;13.27;;;3.80;;
3941;SDS011;1985;48.592;8.850;2023-06-04T05:52:53;12.03;;;3.70;;
3941;SDS011;1985;48.592;8.850;2023-06-04T05:55:19;11.75;;;3.80;;
3941;SDS011;1985;48.592;8.850;2023-06-04T05:57:44;10.63;;;3.35;;
3941;SDS011;1985;48.592;8.850;2023-06-04T06:00:10;12.90;;;4.00;;
3941;SDS011;1985;48.592;8.850;2023-06-04T06:02:37;11.48;;;3.67;;
3941;SDS011;1985;48.592;8.850;2023-06-04T06:05:04;13.32;;;3.70;;
3941;SDS011;1985;48.592;8.850;2023-06-04T06:07:33;12.77;;;3.80;;
3941;SDS011;1985;48.592;8.850;2023-06-04T06:09:59;12.52;;;3.53;;
3941;SDS011;1985;48.592;8.850;2023-06-04T06:12:24;12.80;;;3.60;;
3941;SDS011;1985;48.592;8.850;2023-06-04T06:14:50;12.27;;;3.80;;
3941;SDS011;1985;48.592;8.850;2023-06-04T06:17:16;11.10;;;3.67;;
3941;SDS011;1985;48.592;8.850;2023-06-04T06:19:41;12.77;;;3.60;;
3941;SDS011;1985;48.592;8.850;2023-06-04T06:22:07;14.30;;;3.90;;
3941;SDS011;1985;48.592;8.850;2023-06-04T06:24:33;12.67;;;3.47;;
3941;SDS011;1985;48.592;8.850;2023-06-04T06:26:59;12.20;;;3.40;;
3941;SDS011;1985;48.592;8.850;2023-06-04T06:29:24;10.40;;;3.03;;
3941;SDS011;1985;48.592;8.850;2023-06-04T06:31:50;12.47;;;3.60;;
3941;SDS011;1985;48.592;8.850;2023-06-04T06:34:16;12.93;;;3.22;;
3941;SDS011;1985;48.592;8.850;2023-06-04T06:36:42;10.93;;;3.10;;
3941;SDS011;1985;48.592;8.850;2023-06-04T06:39:07;13.10;;;3.10;;
3941;SDS011;1985;48.592;8.850;2023-06-04T06:41:34;10.40;;;2.80;;
3941;SDS011;1985;48.592;8.850;2023-06-04T06:43:59;11.60;;;3.00;;
3941;SDS011;1985;48.592;8.850;2023-06-04T06:46:25;12.50;;;3.03;;
3941;SDS011;1985;48.592;8.850;2023-06-04T06:48:51;10.73;;;3.38;;
3941;SDS011;1985;48.592;8.850;2023-06-04T06:51:16;13.23;;;3.57;;
3941;SDS011;1985;48.592;8.850;2023-06-04T06:53:42;15.67;;;3.50;;
3941;SDS011;1985;48.592;8.850;2023-06-04T06:56:08;13.90;;;3.10;;
3941;SDS011;1985;48.592;8.850;2023-06-04T06:58:34;12.00;;;3.40;;
3941;SDS011;1985;48.592;8.850;2023-06-04T07:00:59;11.68;;;3.47;;
3941;SDS011;1985;48.592;8.850;2023-06-04T07:03:25;12.83;;;3.30;;
3941;SDS011;1985;48.592;8.850;2023-06-04T07:05:51;11.60;;;3.05;;
3941;SDS011;1985;48.592;8.850;2023-06-04T07:08:17;10.13;;;2.97;;
3941;SDS011;1985;48.592;8.850;2023-06-04T07:10:42;11.23;;;3.10;;
3941;SDS011;1985;48.592;8.850;2023-06-04T07:13:08;12.20;;;3.37;;
3941;SDS011;1985;48.592;8.850;2023-06-04T07:15:34;10.27;;;2.97;;
3941;SDS011;1985;48.592;8.850;2023-06-04T07:18:00;14.50;;;3.63;;
3941;SDS011;1985;48.592;8.850;2023-06-04T07:20:25;11.43;;;3.27;;
3941;SDS011;1985;48.592;8.850;2023-06-04T07:22:51;10.45;;;2.80;;
3941;SDS011;1985;48.592;8.850;2023-06-04T07:25:17;12.82;;;3.00;;
3941;SDS011;1985;48.592;8.850;2023-06-04T07:27:44;11.73;;;3.05;;
3941;SDS011;1985;48.592;8.850;2023-06-04T07:30:10;10.60;;;2.80;;
3941;SDS011;1985;48.592;8.850;2023-06-04T07:32:36;11.50;;;2.78;;
3941;SDS011;1985;48.592;8.850;2023-06-04T07:35:02;11.10;;;3.00;;
3941;SDS011;1985;48.592;8.850;2023-06-04T07:37:27;10.25;;;2.85;;
3941;SDS011;1985;48.592;8.850;2023-06-04T07:39:53;11.80;;;2.70;;
3941;SDS011;1985;48.592;8.850;2023-06-04T07:42:19;11.20;;;2.80;;
3941;SDS011;1985;48.592;8.850;2023-06-04T07:44:44;11.00;;;3.00;;
3941;SDS011;1985;48.592;8.850;2023-06-04T07:47:10;10.10;;;2.70;;
3941;SDS011;1985;48.592;8.850;2023-06-04T07:49:36;14.90;;;3.20;;
3941;SDS011;1985;48.592;8.850;2023-06-04T07:52:01;12.38;;;3.17;;
3941;SDS011;1985;48.592;8.850;2023-06-04T07:54:27;10.65;;;3.00;;
3941;SDS011;1985;48.592;8.850;2023-06-04T07:56:52;12.47;;;3.10;;
3941;SDS011;1985;48.592;8.850;2023-06-04T07:59:21;14.10;;;3.20;;
3941;SDS011;1985;48.592;8.850;2023-06-04T08:01:49;12.60;;;3.20;;
3941;SDS011;1985;48.592;8.850;2023-06-04T08:04:16;11.20;;;2.95;;
3941;SDS011;1985;48.592;8.850;2023-06-04T08:06:41;10.50;;;2.90;;
3941;SDS011;1985;48.592;8.850;2023-06-04T08:09:10;11.63;;;2.63;;
3941;SDS011;1985;48.592;8.850;2023-06-04T08:11:36;11.45;;;3.10;;
3941;SDS011;1985;48.592;8.850;2023-06-04T08:14:02;11.73;;;3.10;;
3941;SDS011;1985;48.592;8.850;2023-06-04T08:16:28;9.73;;;2.60;;
3941;SDS011;1985;48.592;8.850;2023-06-04T08:18:55;12.27;;;3.20;;
3941;SDS011;1985;48.592;8.850;2023-06-04T08:21:26;11.40;;;3.10;;
3941;SDS011;1985;48.592;8.850;2023-06-04T08:23:53;9.90;;;2.70;;
3941;SDS011;1985;48.592;8.850;2023-06-04T08:26:19;15.20;;;3.25;;
3941;SDS011;1985;48.592;8.850;2023-06-04T08:28:47;9.90;;;2.70;;
3941;SDS011;1985;48.592;8.850;2023-06-04T08:31:14;10.93;;;3.00;;
3941;SDS011;1985;48.592;8.850;2023-06-04T08:33:40;9.68;;;2.50;;
3941;SDS011;1985;48.592;8.850;2023-06-04T08:36:06;10.70;;;2.90;;
3941;SDS011;1985;48.592;8.850;2023-06-04T08:38:32;10.20;;;2.80;;
3941;SDS011;1985;48.592;8.850;2023-06-04T08:40:58;10.60;;;3.00;;
3941;SDS011;1985;48.592;8.850;2023-06-04T08:43:32;15.67;;;3.07;;
3941;SDS011;1985;48.592;8.850;2023-06-04T08:45:59;10.90;;;2.97;;
3941;SDS011;1985;48.592;8.850;2023-06-04T08:48:31;13.05;;;3.00;;
3941;SDS011;1985;48.592;8.850;2023-06-04T08:50:57;13.67;;;3.30;;
3941;SDS011;1985;48.592;8.850;2023-06-04T08:53:26;13.38;;;2.90;;
3941;SDS011;1985;48.592;8.850;2023-06-04T08:55:52;11.33;;;3.03;;
3941;SDS011;1985;48.592;8.850;2023-06-04T08:58:19;10.32;;;3.10;;
3941;SDS011;1985;48.592;8.850;2023-06-04T09:00:46;10.20;;;2.72;;
3941;SDS011;1985;48.592;8.850;2023-06-04T09:03:12;12.87;;;3.20;;
3941;SDS011;1985;48.592;8.850;2023-06-04T09:05:40;12.70;;;2.72;;
3941;SDS011;1985;48.592;8.850;2023-06-04T09:08:12;9.80;;;2.90;;
3941;SDS011;1985;48.592;8.850;2023-06-04T09:10:41;10.73;;;3.10;;
3941;SDS011;1985;48.592;8.850;2023-06-04T09:13:11;12.43;;;3.05;;
3941;SDS011;1985;48.592;8.850;2023-06-04T09:15:41;9.85;;;2.85;;
3941;SDS011;1985;48.592;8.850;2023-06-04T09:18:06;10.93;;;3.20;;
3941;SDS011;1985;48.592;8.850;2023-06-04T09:20:32;11.30;;;2.55;;
3941;SDS011;1985;48.592;8.850;2023-06-04T09:22:58;11.70;;;3.30;;
3941;SDS011;1985;48.592;8.850;2023-06-04T09:25:25;13.27;;;2.72;;
3941;SDS011;1985;48.592;8.850;2023-06-04T09:27:52;10.15;;;3.22;;
3941;SDS011;1985;48.592;8.850;2023-06-04T09:30:19;13.27;;;3.78;;
3941;SDS011;1985;48.592;8.850;2023-06-04T09:32:45;11.13;;;3.10;;
3941;SDS011;1985;48.592;8.850;2023-06-04T09:35:14;11.60;;;2.90;;
3941;SDS011;1985;48.592;8.850;2023-06-04T09:37:42;13.00;;;3.63;;
3941;SDS011;1985;48.592;8.850;2023-06-04T09:40:16;11.88;;;3.85;;
3941;SDS011;1985;48.592;8.850;2023-06-04T09:42:45;11.25;;;3.13;;
3941;SDS011;1985;48.592;8.850;2023-06-04T09:45:25;12.20;;;3.33;;
3941;SDS011;1985;48.592;8.850;2023-06-04T09:47:55;11.27;;;3.05;;
3941;SDS011;1985;48.592;8.850;2023-06-04T09:50:24;12.35;;;3.17;;
3941;SDS011;1985;48.592;8.850;2023-06-04T09:52:58;10.65;;;3.28;;
3941;SDS011;1985;48.592;8.850;2023-06-04T09:55:25;11.70;;;3.17;;
3941;SDS011;1985;48.592;8.850;2023-06-04T09:57:51;12.85;;;3.00;;
3941;SDS011;1985;48.592;8.850;2023-06-04T10:00:19;13.10;;;3.25;;
3941;SDS011;1985;48.592;8.850;2023-06-04T10:02:46;10.77;;;3.30;;
3941;SDS011;1985;48.592;8.850;2023-06-04T10:05:12;11.20;;;3.20;;
3941;SDS011;1985;48.592;8.850;2023-06-04T10:07:39;11.55;;;2.78;;
3941;SDS011;1985;48.592;8.850;2023-06-04T10:10:08;16.30;;;3.22;;
3941;SDS011;1985;48.592;8.850;2023-06-04T10:12:58;12.40;;;3.20;;
3941;SDS011;1985;48.592;8.850;2023-06-04T10:15:27;11.68;;;3.20;;
3941;SDS011;1985;48.592;8.850;2023-06-04T10:17:54;12.15;;;3.00;;
3941;SDS011;1985;48.592;8.850;2023-06-04T10:20:21;13.00;;;3.00;;
3941;SDS011;1985;48.592;8.850;2023-06-04T10:22:47;11.65;;;3.50;;
3941;SDS011;1985;48.592;8.850;2023-06-04T10:25:13;12.50;;;3.50;;
3941;SDS011;1985;48.592;8.850;2023-06-04T10:27:40;12.10;;;3.33;;
3941;SDS011;1985;48.592;8.850;2023-06-04T10:30:06;11.38;;;3.30;;
3941;SDS011;1985;48.592;8.850;2023-06-04T10:32:33;11.93;;;3.30;;
3941;SDS011;1985;48.592;8.850;2023-06-04T10:35:03;11.25;;;3.00;;
3941;SDS011;1985;48.592;8.850;2023-06-04T10:37:29;11.50;;;3.07;;
3941;SDS011;1985;48.592;8.850;2023-06-04T10:39:55;10.73;;;2.80;;
3941;SDS011;1985;48.592;8.850;2023-06-04T10:42:22;11.07;;;3.60;;
3941;SDS011;1985;48.592;8.850;2023-06-04T10:44:49;10.70;;;3.53;;
3941;SDS011;1985;48.592;8.850;2023-06-04T10:49:50;21.15;;;3.85;;
3941;SDS011;1985;48.592;8.850;2023-06-04T10:52:16;10.02;;;3.50;;
3941;SDS011;1985;48.592;8.850;2023-06-04T10:54:42;11.80;;;3.20;;
3941;SDS011;1985;48.592;8.850;2023-06-04T10:57:13;11.35;;;3.85;;
3941;SDS011;1985;48.592;8.850;2023-06-04T10:59:40;11.17;;;3.30;;
3941;SDS011;1985;48.592;8.850;2023-06-04T11:02:07;15.05;;;3.53;;
3941;SDS011;1985;48.592;8.850;2023-06-04T11:04:33;11.25;;;3.30;;
3941;SDS011;1985;48.592;8.850;2023-06-04T11:07:03;14.18;;;3.20;;
3941;SDS011;1985;48.592;8.850;2023-06-04T11:09:34;13.23;;;3.10;;
3941;SDS011;1985;48.592;8.850;2023-06-04T11:12:12;10.80;;;3.53;;
3941;SDS011;1985;48.592;8.850;2023-06-04T11:14:37;10.73;;;3.70;;
3941;SDS011;1985;48.592;8.850;2023-06-04T11:17:10;11.80;;;2.70;;
3941;SDS011;1985;48.592;8.850;2023-06-04T11:19:37;10.18;;;3.20;;
3941;SDS011;1985;48.592;8.850;2023-06-04T11:22:03;11.50;;;3.60;;
3941;SDS011;1985;48.592;8.850;2023-06-04T11:24:30;11.13;;;3.40;;
3941;SDS011;1985;48.592;8.850;2023-06-04T11:26:57;10.15;;;3.58;;
3941;SDS011;1985;48.592;8.850;2023-06-04T11:29:27;11.43;;;3.83;;
3941;SDS011;1985;48.592;8.850;2023-06-04T11:31:53;10.43;;;3.13;;
3941;SDS011;1985;48.592;8.850;2023-06-04T11:34:37;10.47;;;3.50;;
3941;SDS011;1985;48.592;8.850;2023-06-04T11:37:09;11.73;;;3.60;;
3941;SDS011;1985;48.592;8.850;2023-06-04T11:39:35;10.02;;;3.28;;
3941;SDS011;1985;48.592;8.850;2023-06-04T11:42:06;10.98;;;3.08;;
3941;SDS011;1985;48.592;8.850;2023-06-04T11:44:32;10.93;;;3.60;;
3941;SDS011;1985;48.592;8.850;2023-06-04T11:46:58;11.40;;;3.30;;
3941;SDS011;1985;48.592;8.850;2023-06-04T11:49:24;10.82;;;3.60;;
3941;SDS011;1985;48.592;8.850;2023-06-04T11:51:51;10.27;;;3.42;;
3941;SDS011;1985;48.592;8.850;2023-06-04T11:54:18;10.65;;;3.28;;
3941;SDS011;1985;48.592;8.850;2023-06-04T11:56:46;14.65;;;3.65;;
3941;SDS011;1985;48.592;8.850;2023-06-04T11:59:15;11.27;;;3.60;;
3941;SDS011;1985;48.592;8.850;2023-06-04T12:01:42;11.07;;;3.33;;
3941;SDS011;1985;48.592;8.850;2023-06-04T12:04:11;10.70;;;3.40;;
3941;SDS011;1985;48.592;8.850;2023-06-04T12:06:50;14.60;;;3.38;;
3941;SDS011;1985;48.592;8.850;2023-06-04T12:09:22;9.60;;;3.20;;
3941;SDS011;1985;48.592;8.850;2023-06-04T12:11:59;13.60;;;3.80;;
3941;SDS011;1985;48.592;8.850;2023-06-04T12:14:29;10.55;;;3.15;;
3941;SDS011;1985;48.592;8.850;2023-06-04T12:16:56;12.88;;;3.28;;
3941;SDS011;1985;48.592;8.850;2023-06-04T12:19:26;11.07;;;3.63;;
3941;SDS011;1985;48.592;8.850;2023-06-04T12:24:28;9.75;;;2.70;;
3941;SDS011;1985;48.592;8.850;2023-06-04T12:27:05;11.32;;;3.53;;
3941;SDS011;1985;48.592;8.850;2023-06-04T12:29:31;12.13;;;3.10;;
3941;SDS011;1985;48.592;8.850;2023-06-04T12:32:07;10.95;;;3.50;;
3941;SDS011;1985;48.592;8.850;2023-06-04T12:34:36;11.13;;;3.80;;
3941;SDS011;1985;48.592;8.850;2023-06-04T12:37:05;12.77;;;4.05;;
3941;SDS011;1985;48.592;8.850;2023-06-04T12:39:32;10.63;;;3.78;;
3941;SDS011;1985;48.592;8.850;2023-06-04T12:41:58;12.00;;;4.05;;
3941;SDS011;1985;48.592;8.850;2023-06-04T12:44:24;10.70;;;3.63;;
3941;SDS011;1985;48.592;8.850;2023-06-04T12:46:50;11.13;;;3.20;;
3941;SDS011;1985;48.592;8.850;2023-06-04T12:49:16;12.00;;;3.50;;
3941;SDS011;1985;48.592;8.850;2023-06-04T12:51:42;11.50;;;3.40;;
3941;SDS011;1985;48.592;8.850;2023-06-04T12:54:07;11.40;;;3.28;;
3941;SDS011;1985;48.592;8.850;2023-06-04T12:56:33;9.73;;;2.90;;
3941;SDS011;1985;48.592;8.850;2023-06-04T12:58:59;10.93;;;3.42;;
3941;SDS011;1985;48.592;8.850;2023-06-04T13:01:24;12.55;;;3.40;;
3941;SDS011;1985;48.592;8.850;2023-06-04T13:03:50;12.70;;;3.63;;
3941;SDS011;1985;48.592;8.850;2023-06-04T13:06:16;10.80;;;3.10;;
3941;SDS011;1985;48.592;8.850;2023-06-04T13:08:41;11.77;;;2.92;;
3941;SDS011;1985;48.592;8.850;2023-06-04T13:11:08;11.00;;;3.10;;
3941;SDS011;1985;48.592;8.850;2023-06-04T13:13:34;10.63;;;3.50;;
3941;SDS011;1985;48.592;8.850;2023-06-04T13:16:02;12.80;;;3.80;;
3941;SDS011;1985;48.592;8.850;2023-06-04T13:18:29;11.57;;;3.55;;
3941;SDS011;1985;48.592;8.850;2023-06-04T13:20:55;11.00;;;3.22;;
3941;SDS011;1985;48.592;8.850;2023-06-04T13:23:21;11.40;;;3.20;;
3941;SDS011;1985;48.592;8.850;2023-06-04T13:25:47;11.88;;;3.40;;
3941;SDS011;1985;48.592;8.850;2023-06-04T13:28:13;11.00;;;3.13;;
3941;SDS011;1985;48.592;8.850;2023-06-04T13:30:39;9.47;;;3.03;;
3941;SDS011;1985;48.592;8.850;2023-06-04T13:33:05;12.00;;;3.30;;
3941;SDS011;1985;48.592;8.850;2023-06-04T13:35:31;10.70;;;3.35;;
3941;SDS011;1985;48.592;8.850;2023-06-04T13:37:57;12.30;;;3.10;;
3941;SDS011;1985;48.592;8.850;2023-06-04T13:40:22;11.20;;;3.20;;
3941;SDS011;1985;48.592;8.850;2023-06-04T13:42:48;12.20;;;3.43;;
3941;SDS011;1985;48.592;8.850;2023-06-04T13:45:14;11.20;;;3.23;;
3941;SDS011;1985;48.592;8.850;2023-06-04T13:47:41;12.73;;;3.45;;
3941;SDS011;1985;48.592;8.850;2023-06-04T13:50:07;14.53;;;3.30;;
3941;SDS011;1985;48.592;8.850;2023-06-04T13:52:33;11.00;;;3.30;;
3941;SDS011;1985;48.592;8.850;2023-06-04T13:54:59;10.80;;;3.10;;
3941;SDS011;1985;48.592;8.850;2023-06-04T13:57:25;10.38;;;3.20;;
3941;SDS011;1985;48.592;8.850;2023-06-04T13:59:52;9.85;;;3.20;;
3941;SDS011;1985;48.592;8.850;2023-06-04T14:02:18;10.40;;;3.30;;
3941;SDS011;1985;48.592;8.850;2023-06-04T14:04:44;11.25;;;3.20;;
3941;SDS011;1985;48.592;8.850;2023-06-04T14:07:10;10.93;;;3.70;;
3941;SDS011;1985;48.592;8.850;2023-06-04T14:09:35;12.70;;;3.30;;
3941;SDS011;1985;48.592;8.850;2023-06-04T14:12:02;12.03;;;3.80;;
3941;SDS011;1985;48.592;8.850;2023-06-04T14:14:28;11.05;;;3.22;;
3941;SDS011;1985;48.592;8.850;2023-06-04T14:17:01;11.48;;;3.38;;
3941;SDS011;1985;48.592;8.850;2023-06-04T14:19:26;10.23;;;2.85;;
3941;SDS011;1985;48.592;8.850;2023-06-04T14:21:52;10.68;;;3.03;;
3941;SDS011;1985;48.592;8.850;2023-06-04T14:24:18;11.10;;;3.28;;
3941;SDS011;1985;48.592;8.850;2023-06-04T14:26:43;10.07;;;2.90;;
3941;SDS011;1985;48.592;8.850;2023-06-04T14:29:09;10.82;;;3.28;;
3941;SDS011;1985;48.592;8.850;2023-06-04T14:31:35;10.25;;;2.95;;
3941;SDS011;1985;48.592;8.850;2023-06-04T14:34:01;11.23;;;3.13;;
3941;SDS011;1985;48.592;8.850;2023-06-04T14:36:26;11.05;;;3.13;;
3941;SDS011;1985;48.592;8.850;2023-06-04T14:38:52;10.70;;;2.80;;
3941;SDS011;1985;48.592;8.850;2023-06-04T14:41:18;11.90;;;2.97;;
3941;SDS011;1985;48.592;8.850;2023-06-04T14:43:43;10.27;;;3.07;;
3941;SDS011;1985;48.592;8.850;2023-06-04T14:46:09;11.35;;;3.50;;
3941;SDS011;1985;48.592;8.850;2023-06-04T14:48:34;11.32;;;2.83;;
3941;SDS011;1985;48.592;8.850;2023-06-04T14:51:00;10.32;;;2.75;;
3941;SDS011;1985;48.592;8.850;2023-06-04T14:53:25;11.85;;;3.10;;
3941;SDS011;1985;48.592;8.850;2023-06-04T14:55:51;11.05;;;3.20;;
3941;SDS011;1985;48.592;8.850;2023-06-04T14:58:17;9.65;;;2.80;;
3941;SDS011;1985;48.592;8.850;2023-06-04T15:00:43;9.07;;;2.40;;
3941;SDS011;1985;48.592;8.850;2023-06-04T15:03:09;10.40;;;3.20;;
3941;SDS011;1985;48.592;8.850;2023-06-04T15:05:35;9.90;;;2.70;;
3941;SDS011;1985;48.592;8.850;2023-06-04T15:08:01;10.37;;;2.70;;